Terminal Aerodrome Forecast
Issued by NWS

Home | Current Version | Previous Version | Graphics & Text | Print | Product List | Glossary On
Versions: 1 2 3 4 5 6 7 8 9 10 11 12 13 14 15 16 17 18 19 20 21 22 23 24 25 26 27
000
FTUS43 KICT 302327
TAFRSL
TAF
KRSL 302327Z 3100/3124 02005KT P6SM VCTS SCT015CB BKN100
      TEMPO 3100/3102 VRB15G20KT 4SM TSRA BKN035CB
     FM310300 06005KT P6SM VCSH SCT040 BKN100
     FM311000 04005KT 4SM BR VCSH SCT015 BKN035
     FM311600 08007KT P6SM VCTS BKN035CB=

USA.gov is the U.S. government's official web portal to all federal, state and local government web resources and services.